sensor_id;sensor_type;location;lat;lon;timestamp;noise_LAeq;noise_LA_min;noise_LA_max;noise_LA01;noise_LA95
57092;Laerm;42968;52.094;4.328;2023-07-13T00:00:09;53.96;48.76;61.63;;
57092;Laerm;42968;52.094;4.328;2023-07-13T00:02:35;55.36;48.48;71.10;;
57092;Laerm;42968;52.094;4.328;2023-07-13T00:05:00;52.39;47.96;64.62;;
57092;Laerm;42968;52.094;4.328;2023-07-13T00:07:25;52.96;47.76;62.58;;
57092;Laerm;42968;52.094;4.328;2023-07-13T00:09:51;54.30;48.10;64.90;;
57092;Laerm;42968;52.094;4.328;2023-07-13T00:12:23;55.20;47.42;67.96;;
57092;Laerm;42968;52.094;4.328;2023-07-13T00:14:49;54.03;47.93;65.33;;
57092;Laerm;42968;52.094;4.328;2023-07-13T00:17:15;53.25;48.05;63.68;;
57092;Laerm;42968;52.094;4.328;2023-07-13T00:19:40;52.60;48.57;62.63;;
57092;Laerm;42968;52.094;4.328;2023-07-13T00:22:05;52.52;47.98;61.06;;
57092;Laerm;42968;52.094;4.328;2023-07-13T00:24:30;51.80;47.68;59.13;;
57092;Laerm;42968;52.094;4.328;2023-07-13T00:26:56;52.11;48.60;61.50;;
57092;Laerm;42968;52.094;4.328;2023-07-13T00:29:21;52.41;48.16;59.67;;
57092;Laerm;42968;52.094;4.328;2023-07-13T00:31:46;56.32;47.79;69.50;;
57092;Laerm;42968;52.094;4.328;2023-07-13T00:34:12;53.70;47.79;63.47;;
57092;Laerm;42968;52.094;4.328;2023-07-13T00:36:37;51.60;48.25;61.52;;
57092;Laerm;42968;52.094;4.328;2023-07-13T00:39:02;54.43;48.42;61.85;;
57092;Laerm;42968;52.094;4.328;2023-07-13T00:41:29;55.16;48.74;63.95;;
57092;Laerm;42968;52.094;4.328;2023-07-13T00:43:54;55.69;49.29;65.69;;
57092;Laerm;42968;52.094;4.328;2023-07-13T00:46:21;58.31;48.37;68.62;;
57092;Laerm;42968;52.094;4.328;2023-07-13T00:48:47;52.33;47.93;64.31;;
57092;Laerm;42968;52.094;4.328;2023-07-13T00:51:14;52.96;48.02;63.17;;
57092;Laerm;42968;52.094;4.328;2023-07-13T00:53:40;51.16;47.16;64.33;;
57092;Laerm;42968;52.094;4.328;2023-07-13T00:56:05;51.63;48.25;65.52;;
57092;Laerm;42968;52.094;4.328;2023-07-13T00:58:31;52.84;48.07;62.25;;
57092;Laerm;42968;52.094;4.328;2023-07-13T01:01:00;51.76;47.14;61.48;;
57092;Laerm;42968;52.094;4.328;2023-07-13T01:03:25;53.16;48.46;62.17;;
57092;Laerm;42968;52.094;4.328;2023-07-13T01:05:51;54.10;48.25;62.08;;
57092;Laerm;42968;52.094;4.328;2023-07-13T01:08:19;54.07;48.51;63.89;;
57092;Laerm;42968;52.094;4.328;2023-07-13T01:10:54;51.81;47.95;56.88;;
57092;Laerm;42968;52.094;4.328;2023-07-13T01:13:20;52.54;48.37;65.96;;
57092;Laerm;42968;52.094;4.328;2023-07-13T01:15:46;52.32;49.12;60.01;;
57092;Laerm;42968;52.094;4.328;2023-07-13T01:18:13;52.61;48.87;58.81;;
57092;Laerm;42968;52.094;4.328;2023-07-13T01:20:39;53.43;48.39;60.13;;
57092;Laerm;42968;52.094;4.328;2023-07-13T01:23:06;54.32;48.61;60.75;;
57092;Laerm;42968;52.094;4.328;2023-07-13T01:25:31;57.06;48.16;67.76;;
57092;Laerm;42968;52.094;4.328;2023-07-13T01:27:57;51.93;47.72;64.48;;
57092;Laerm;42968;52.094;4.328;2023-07-13T01:30:22;50.36;47.57;59.12;;
57092;Laerm;42968;52.094;4.328;2023-07-13T01:32:47;50.04;47.10;56.53;;
57092;Laerm;42968;52.094;4.328;2023-07-13T01:35:12;50.14;47.42;56.29;;
57092;Laerm;42968;52.094;4.328;2023-07-13T01:37:38;51.91;47.61;58.83;;
57092;Laerm;42968;52.094;4.328;2023-07-13T01:40:04;50.81;48.07;57.39;;
57092;Laerm;42968;52.094;4.328;2023-07-13T01:42:29;52.07;47.90;59.66;;
57092;Laerm;42968;52.094;4.328;2023-07-13T01:44:54;52.65;47.50;62.99;;
57092;Laerm;42968;52.094;4.328;2023-07-13T01:47:20;52.69;48.40;62.93;;
57092;Laerm;42968;52.094;4.328;2023-07-13T01:49:45;50.84;47.63;56.96;;
57092;Laerm;42968;52.094;4.328;2023-07-13T01:52:12;51.98;47.42;60.93;;
57092;Laerm;42968;52.094;4.328;2023-07-13T01:54:37;51.44;48.02;61.18;;
57092;Laerm;42968;52.094;4.328;2023-07-13T01:57:03;52.36;48.60;59.80;;
57092;Laerm;42968;52.094;4.328;2023-07-13T01:59:28;52.04;47.79;66.61;;
57092;Laerm;42968;52.094;4.328;2023-07-13T02:01:54;50.23;47.70;60.56;;
57092;Laerm;42968;52.094;4.328;2023-07-13T02:04:19;50.41;47.50;61.41;;
57092;Laerm;42968;52.094;4.328;2023-07-13T02:06:44;50.37;47.40;57.24;;
57092;Laerm;42968;52.094;4.328;2023-07-13T02:09:09;52.70;47.61;60.79;;
57092;Laerm;42968;52.094;4.328;2023-07-13T02:11:35;53.54;47.96;65.80;;
57092;Laerm;42968;52.094;4.328;2023-07-13T02:14:00;52.77;47.81;63.10;;
57092;Laerm;42968;52.094;4.328;2023-07-13T02:16:26;51.48;47.74;60.95;;
57092;Laerm;42968;52.094;4.328;2023-07-13T02:18:52;52.67;47.98;62.45;;
57092;Laerm;42968;52.094;4.328;2023-07-13T02:21:18;52.18;47.77;60.54;;
57092;Laerm;42968;52.094;4.328;2023-07-13T02:23:43;53.47;47.20;65.49;;
57092;Laerm;42968;52.094;4.328;2023-07-13T02:26:08;51.53;47.68;62.96;;
57092;Laerm;42968;52.094;4.328;2023-07-13T02:28:34;53.11;48.07;63.36;;
57092;Laerm;42968;52.094;4.328;2023-07-13T02:31:06;51.10;47.63;55.85;;
57092;Laerm;42968;52.094;4.328;2023-07-13T02:33:32;50.67;47.52;59.10;;
57092;Laerm;42968;52.094;4.328;2023-07-13T02:35:57;49.64;47.52;55.51;;
57092;Laerm;42968;52.094;4.328;2023-07-13T02:38:22;50.68;47.61;57.80;;
57092;Laerm;42968;52.094;4.328;2023-07-13T02:40:48;52.70;48.28;60.12;;
57092;Laerm;42968;52.094;4.328;2023-07-13T02:43:13;53.13;47.63;59.59;;
57092;Laerm;42968;52.094;4.328;2023-07-13T02:45:38;51.48;47.57;57.86;;
57092;Laerm;42968;52.094;4.328;2023-07-13T02:48:08;53.29;47.52;61.94;;
57092;Laerm;42968;52.094;4.328;2023-07-13T02:50:33;51.52;47.58;61.15;;
57092;Laerm;42968;52.094;4.328;2023-07-13T02:52:58;54.55;48.08;62.71;;
57092;Laerm;42968;52.094;4.328;2023-07-13T02:55:24;55.72;48.12;64.74;;
57092;Laerm;42968;52.094;4.328;2023-07-13T02:57:49;53.87;48.32;62.48;;
57092;Laerm;42968;52.094;4.328;2023-07-13T03:00:15;54.47;48.25;63.47;;
57092;Laerm;42968;52.094;4.328;2023-07-13T03:02:41;54.31;47.32;65.76;;
57092;Laerm;42968;52.094;4.328;2023-07-13T03:05:07;51.70;47.57;58.41;;
57092;Laerm;42968;52.094;4.328;2023-07-13T03:07:32;54.19;47.90;61.58;;
57092;Laerm;42968;52.094;4.328;2023-07-13T03:09:58;53.85;48.43;63.81;;
57092;Laerm;42968;52.094;4.328;2023-07-13T03:12:24;51.50;47.67;60.81;;
57092;Laerm;42968;52.094;4.328;2023-07-13T03:14:49;55.02;48.00;65.89;;
57092;Laerm;42968;52.094;4.328;2023-07-13T03:17:14;52.51;48.36;60.22;;
57092;Laerm;42968;52.094;4.328;2023-07-13T03:19:40;51.97;48.43;58.05;;
57092;Laerm;42968;52.094;4.328;2023-07-13T03:22:05;50.29;47.68;57.99;;
57092;Laerm;42968;52.094;4.328;2023-07-13T03:24:32;52.52;48.19;60.03;;
57092;Laerm;42968;52.094;4.328;2023-07-13T03:26:57;53.79;48.16;60.65;;
57092;Laerm;42968;52.094;4.328;2023-07-13T03:29:23;53.27;47.70;60.56;;
57092;Laerm;42968;52.094;4.328;2023-07-13T03:31:48;51.38;47.90;59.02;;
57092;Laerm;42968;52.094;4.328;2023-07-13T03:34:13;53.38;47.93;63.33;;
57092;Laerm;42968;52.094;4.328;2023-07-13T03:36:38;52.42;47.68;62.74;;
57092;Laerm;42968;52.094;4.328;2023-07-13T03:39:04;52.82;47.90;62.41;;
57092;Laerm;42968;52.094;4.328;2023-07-13T03:41:33;51.86;47.70;58.64;;
57092;Laerm;42968;52.094;4.328;2023-07-13T03:43:58;52.80;48.25;62.09;;
57092;Laerm;42968;52.094;4.328;2023-07-13T03:46:24;52.43;47.83;62.99;;
57092;Laerm;42968;52.094;4.328;2023-07-13T03:48:49;53.03;48.05;60.69;;
57092;Laerm;42968;52.094;4.328;2023-07-13T03:51:15;53.73;48.05;63.60;;
57092;Laerm;42968;52.094;4.328;2023-07-13T03:53:41;52.74;47.90;60.17;;
57092;Laerm;42968;52.094;4.328;2023-07-13T03:56:07;52.87;48.20;59.82;;
57092;Laerm;42968;52.094;4.328;2023-07-13T03:58:33;54.91;48.36;63.40;;
57092;Laerm;42968;52.094;4.328;2023-07-13T04:00:59;53.88;48.00;64.73;;
57092;Laerm;42968;52.094;4.328;2023-07-13T04:03:25;55.08;48.85;62.27;;
57092;Laerm;42968;52.094;4.328;2023-07-13T04:05:52;54.11;48.49;59.00;;
57092;Laerm;42968;52.094;4.328;2023-07-13T04:08:18;52.61;47.50;62.50;;
57092;Laerm;42968;52.094;4.328;2023-07-13T04:10:44;53.66;47.86;61.45;;
57092;Laerm;42968;52.094;4.328;2023-07-13T04:13:09;52.13;48.02;64.35;;
57092;Laerm;42968;52.094;4.328;2023-07-13T04:15:34;54.15;48.64;61.59;;
57092;Laerm;42968;52.094;4.328;2023-07-13T04:18:00;52.77;48.63;61.65;;
57092;Laerm;42968;52.094;4.328;2023-07-13T04:20:25;53.12;48.58;64.13;;
57092;Laerm;42968;52.094;4.328;2023-07-13T04:22:51;52.09;48.13;62.45;;
57092;Laerm;42968;52.094;4.328;2023-07-13T04:25:16;53.19;47.93;61.94;;
57092;Laerm;42968;52.094;4.328;2023-07-13T04:27:41;52.60;48.15;64.02;;
57092;Laerm;42968;52.094;4.328;2023-07-13T04:30:07;52.30;47.95;63.30;;
57092;Laerm;42968;52.094;4.328;2023-07-13T04:32:32;50.35;47.22;61.71;;
57092;Laerm;42968;52.094;4.328;2023-07-13T04:34:58;50.03;47.57;55.30;;
57092;Laerm;42968;52.094;4.328;2023-07-13T04:37:24;50.07;47.74;59.85;;
57092;Laerm;42968;52.094;4.328;2023-07-13T04:39:49;51.30;47.72;61.75;;
57092;Laerm;42968;52.094;4.328;2023-07-13T04:42:14;53.61;47.81;61.48;;
57092;Laerm;42968;52.094;4.328;2023-07-13T04:44:40;52.14;48.02;60.86;;
57092;Laerm;42968;52.094;4.328;2023-07-13T04:47:05;51.17;47.52;62.82;;
57092;Laerm;42968;52.094;4.328;2023-07-13T04:49:30;52.92;47.91;59.49;;
57092;Laerm;42968;52.094;4.328;2023-07-13T04:51:55;52.86;47.24;63.94;;
57092;Laerm;42968;52.094;4.328;2023-07-13T04:54:21;55.96;48.12;62.48;;
57092;Laerm;42968;52.094;4.328;2023-07-13T04:56:46;55.31;48.51;63.97;;
57092;Laerm;42968;52.094;4.328;2023-07-13T04:59:12;55.83;48.49;60.62;;
57092;Laerm;42968;52.094;4.328;2023-07-13T05:01:37;53.60;48.55;64.26;;
57092;Laerm;42968;52.094;4.328;2023-07-13T05:04:02;51.61;47.63;57.81;;
57092;Laerm;42968;52.094;4.328;2023-07-13T05:06:28;52.63;47.52;67.54;;
57092;Laerm;42968;52.094;4.328;2023-07-13T05:08:53;52.50;48.64;62.07;;
57092;Laerm;42968;52.094;4.328;2023-07-13T05:11:18;54.74;48.96;62.22;;
57092;Laerm;42968;52.094;4.328;2023-07-13T05:13:44;53.77;48.31;63.34;;
57092;Laerm;42968;52.094;4.328;2023-07-13T05:16:09;51.22;48.00;59.60;;
57092;Laerm;42968;52.094;4.328;2023-07-13T05:18:35;50.43;47.68;59.18;;
57092;Laerm;42968;52.094;4.328;2023-07-13T05:21:02;55.17;49.12;61.61;;
57092;Laerm;42968;52.094;4.328;2023-07-13T05:23:27;54.62;47.95;60.31;;
57092;Laerm;42968;52.094;4.328;2023-07-13T05:25:53;52.92;48.10;65.07;;
57092;Laerm;42968;52.094;4.328;2023-07-13T05:28:18;51.47;47.93;60.40;;
57092;Laerm;42968;52.094;4.328;2023-07-13T05:30:46;51.61;47.60;62.67;;
57092;Laerm;42968;52.094;4.328;2023-07-13T05:33:12;50.93;47.40;63.95;;
57092;Laerm;42968;52.094;4.328;2023-07-13T05:35:37;52.30;47.87;63.25;;
57092;Laerm;42968;52.094;4.328;2023-07-13T05:38:03;51.09;47.44;59.02;;
57092;Laerm;42968;52.094;4.328;2023-07-13T05:40:28;53.94;47.40;61.44;;
57092;Laerm;42968;52.094;4.328;2023-07-13T05:42:53;54.14;48.74;61.60;;
57092;Laerm;42968;52.094;4.328;2023-07-13T05:45:19;53.43;47.79;60.02;;
57092;Laerm;42968;52.094;4.328;2023-07-13T05:47:44;51.94;47.22;58.32;;
57092;Laerm;42968;52.094;4.328;2023-07-13T05:50:09;51.59;47.16;60.58;;
57092;Laerm;42968;52.094;4.328;2023-07-13T05:52:34;52.68;48.61;63.47;;
57092;Laerm;42968;52.094;4.328;2023-07-13T05:55:00;52.40;48.20;60.11;;
57092;Laerm;42968;52.094;4.328;2023-07-13T05:57:25;51.51;48.03;61.63;;
57092;Laerm;42968;52.094;4.328;2023-07-13T05:59:50;51.44;47.77;60.81;;
57092;Laerm;42968;52.094;4.328;2023-07-13T06:02:15;52.56;48.08;57.73;;
57092;Laerm;42968;52.094;4.328;2023-07-13T06:04:41;53.16;47.95;60.99;;
57092;Laerm;42968;52.094;4.328;2023-07-13T06:07:06;51.59;47.76;59.47;;
57092;Laerm;42968;52.094;4.328;2023-07-13T06:09:31;52.78;47.95;62.10;;
57092;Laerm;42968;52.094;4.328;2023-07-13T06:11:56;51.76;48.46;58.73;;
57092;Laerm;42968;52.094;4.328;2023-07-13T06:14:22;52.65;48.61;55.31;;
57092;Laerm;42968;52.094;4.328;2023-07-13T06:16:47;50.99;48.26;54.60;;
57092;Laerm;42968;52.094;4.328;2023-07-13T06:19:12;50.95;47.55;61.12;;
57092;Laerm;42968;52.094;4.328;2023-07-13T06:21:38;50.31;47.44;57.84;;
57092;Laerm;42968;52.094;4.328;2023-07-13T06:24:03;51.83;47.88;59.82;;
57092;Laerm;42968;52.094;4.328;2023-07-13T06:26:28;53.82;47.91;67.82;;
57092;Laerm;42968;52.094;4.328;2023-07-13T06:28:54;51.90;47.98;60.04;;
57092;Laerm;42968;52.094;4.328;2023-07-13T06:31:19;52.35;47.59;61.14;;
57092;Laerm;42968;52.094;4.328;2023-07-13T06:33:45;55.40;48.08;62.84;;
57092;Laerm;42968;52.094;4.328;2023-07-13T06:36:10;53.41;48.83;65.24;;
57092;Laerm;42968;52.094;4.328;2023-07-13T06:38:35;52.73;49.02;57.95;;
57092;Laerm;42968;52.094;4.328;2023-07-13T06:41:01;52.94;47.61;62.08;;
57092;Laerm;42968;52.094;4.328;2023-07-13T06:43:26;50.52;47.81;60.86;;
57092;Laerm;42968;52.094;4.328;2023-07-13T06:45:54;50.33;48.00;52.96;;
57092;Laerm;42968;52.094;4.328;2023-07-13T06:48:20;50.88;47.61;68.11;;
57092;Laerm;42968;52.094;4.328;2023-07-13T06:50:45;52.84;47.81;65.07;;
57092;Laerm;42968;52.094;4.328;2023-07-13T06:53:12;55.96;47.10;64.33;;
57092;Laerm;42968;52.094;4.328;2023-07-13T06:55:37;53.11;48.37;61.15;;
57092;Laerm;42968;52.094;4.328;2023-07-13T06:58:03;50.87;47.44;60.45;;
57092;Laerm;42968;52.094;4.328;2023-07-13T07:00:28;54.44;47.81;64.60;;
57092;Laerm;42968;52.094;4.328;2023-07-13T07:02:54;53.34;46.93;61.16;;
57092;Laerm;42968;52.094;4.328;2023-07-13T07:05:19;51.85;47.14;68.71;;
57092;Laerm;42968;52.094;4.328;2023-07-13T07:07:47;56.98;48.10;66.15;;
57092;Laerm;42968;52.094;4.328;2023-07-13T07:10:12;54.28;48.32;67.11;;
57092;Laerm;42968;52.094;4.328;2023-07-13T07:12:37;53.20;47.63;64.70;;
57092;Laerm;42968;52.094;4.328;2023-07-13T07:15:02;52.20;48.23;59.29;;
57092;Laerm;42968;52.094;4.328;2023-07-13T07:17:28;52.64;48.42;60.28;;
57092;Laerm;42968;52.094;4.328;2023-07-13T07:19:53;53.74;49.30;60.34;;
57092;Laerm;42968;52.094;4.328;2023-07-13T07:22:19;53.79;48.58;60.79;;
57092;Laerm;42968;52.094;4.328;2023-07-13T07:24:44;57.90;48.80;64.87;;
57092;Laerm;42968;52.094;4.328;2023-07-13T07:27:10;53.96;49.59;61.50;;
57092;Laerm;42968;52.094;4.328;2023-07-13T07:29:36;52.74;49.55;56.30;;
57092;Laerm;42968;52.094;4.328;2023-07-13T07:32:01;52.34;47.54;59.30;;
57092;Laerm;42968;52.094;4.328;2023-07-13T07:34:26;52.89;49.06;56.73;;
57092;Laerm;42968;52.094;4.328;2023-07-13T07:36:52;53.73;50.24;59.70;;
57092;Laerm;42968;52.094;4.328;2023-07-13T07:39:17;52.92;48.32;61.33;;
57092;Laerm;42968;52.094;4.328;2023-07-13T07:41:43;54.69;49.07;61.04;;
57092;Laerm;42968;52.094;4.328;2023-07-13T07:44:08;55.25;48.90;67.79;;
57092;Laerm;42968;52.094;4.328;2023-07-13T07:46:34;56.75;48.83;65.56;;
57092;Laerm;42968;52.094;4.328;2023-07-13T07:49:00;56.02;48.36;67.87;;
57092;Laerm;42968;52.094;4.328;2023-07-13T07:51:25;51.56;48.57;61.05;;
57092;Laerm;42968;52.094;4.328;2023-07-13T07:53:51;52.24;47.90;59.75;;
57092;Laerm;42968;52.094;4.328;2023-07-13T07:56:16;55.69;48.26;62.95;;
57092;Laerm;42968;52.094;4.328;2023-07-13T07:58:42;55.56;48.96;59.24;;
57092;Laerm;42968;52.094;4.328;2023-07-13T08:01:07;55.84;49.24;60.33;;
57092;Laerm;42968;52.094;4.328;2023-07-13T08:03:33;53.15;47.38;65.41;;
57092;Laerm;42968;52.094;4.328;2023-07-13T08:05:58;53.37;47.83;62.87;;
57092;Laerm;42968;52.094;4.328;2023-07-13T08:08:24;51.25;47.63;64.14;;
57092;Laerm;42968;52.094;4.328;2023-07-13T08:10:49;51.92;47.86;61.00;;
57092;Laerm;42968;52.094;4.328;2023-07-13T08:13:14;57.84;47.93;65.11;;
57092;Laerm;42968;52.094;4.328;2023-07-13T08:15:40;52.33;47.59;60.46;;
57092;Laerm;42968;52.094;4.328;2023-07-13T08:18:05;52.72;49.27;58.54;;
57092;Laerm;42968;52.094;4.328;2023-07-13T08:20:31;56.35;48.36;62.03;;
57092;Laerm;42968;52.094;4.328;2023-07-13T08:22:56;55.84;48.40;62.69;;
57092;Laerm;42968;52.094;4.328;2023-07-13T08:25:21;55.71;48.54;63.94;;
57092;Laerm;42968;52.094;4.328;2023-07-13T08:27:47;57.21;48.18;63.16;;
57092;Laerm;42968;52.094;4.328;2023-07-13T08:30:12;56.01;48.29;63.44;;
57092;Laerm;42968;52.094;4.328;2023-07-13T08:32:38;57.38;48.37;63.94;;
57092;Laerm;42968;52.094;4.328;2023-07-13T08:35:04;51.51;47.70;62.27;;
57092;Laerm;42968;52.094;4.328;2023-07-13T08:37:29;51.48;47.52;61.20;;
57092;Laerm;42968;52.094;4.328;2023-07-13T08:39:54;50.85;47.48;56.26;;
57092;Laerm;42968;52.094;4.328;2023-07-13T08:47:19;54.15;48.77;58.19;;
57092;Laerm;42968;52.094;4.328;2023-07-13T08:49:47;55.66;48.66;63.40;;
57092;Laerm;42968;52.094;4.328;2023-07-13T08:52:33;52.01;47.63;58.49;;
57092;Laerm;42968;52.094;4.328;2023-07-13T08:55:02;53.38;48.07;64.58;;
57092;Laerm;42968;52.094;4.328;2023-07-13T08:57:31;53.67;48.16;64.61;;
57092;Laerm;42968;52.094;4.328;2023-07-13T08:59:57;54.95;47.63;68.09;;
57092;Laerm;42968;52.094;4.328;2023-07-13T09:02:28;52.72;48.07;66.47;;
57092;Laerm;42968;52.094;4.328;2023-07-13T09:15:37;51.45;47.26;59.29;;
57092;Laerm;42968;52.094;4.328;2023-07-13T09:18:10;50.26;47.50;56.61;;
57092;Laerm;42968;52.094;4.328;2023-07-13T09:23:10;54.09;48.61;62.14;;
57092;Laerm;42968;52.094;4.328;2023-07-13T09:25:38;55.29;48.55;67.06;;
57092;Laerm;42968;52.094;4.328;2023-07-13T09:28:10;53.00;48.02;62.52;;
57092;Laerm;42968;52.094;4.328;2023-07-13T09:30:43;52.71;47.90;61.36;;
57092;Laerm;42968;52.094;4.328;2023-07-13T09:33:10;56.33;48.07;65.88;;
57092;Laerm;42968;52.094;4.328;2023-07-13T09:35:35;55.05;48.99;62.86;;
57092;Laerm;42968;52.094;4.328;2023-07-13T09:38:17;55.29;48.16;69.62;;
57092;Laerm;42968;52.094;4.328;2023-07-13T09:43:09;53.39;48.43;61.43;;
57092;Laerm;42968;52.094;4.328;2023-07-13T09:45:38;55.20;48.63;65.90;;
57092;Laerm;42968;52.094;4.328;2023-07-13T09:48:05;52.38;49.14;57.98;;
57092;Laerm;42968;52.094;4.328;2023-07-13T09:50:31;53.16;48.83;58.80;;
57092;Laerm;42968;52.094;4.328;2023-07-13T09:52:56;56.85;48.52;62.30;;
57092;Laerm;42968;52.094;4.328;2023-07-13T09:55:37;57.59;48.29;63.38;;
57092;Laerm;42968;52.094;4.328;2023-07-13T10:00:35;60.19;49.46;65.84;;
57092;Laerm;42968;52.094;4.328;2023-07-13T10:03:02;59.91;48.37;65.24;;
57092;Laerm;42968;52.094;4.328;2023-07-13T10:05:28;57.26;48.20;66.91;;
57092;Laerm;42968;52.094;4.328;2023-07-13T10:08:01;53.53;48.03;58.37;;
57092;Laerm;42968;52.094;4.328;2023-07-13T10:10:27;54.10;49.57;60.68;;
57092;Laerm;42968;52.094;4.328;2023-07-13T10:12:52;52.54;48.42;57.91;;
57092;Laerm;42968;52.094;4.328;2023-07-13T10:15:19;53.60;48.61;62.72;;
57092;Laerm;42968;52.094;4.328;2023-07-13T10:17:44;51.07;48.16;57.50;;
57092;Laerm;42968;52.094;4.328;2023-07-13T10:20:10;51.13;48.49;57.14;;
57092;Laerm;42968;52.094;4.328;2023-07-13T10:25:25;51.32;48.37;58.97;;
57092;Laerm;42968;52.094;4.328;2023-07-13T10:27:51;50.98;48.51;54.90;;
57092;Laerm;42968;52.094;4.328;2023-07-13T10:30:24;51.39;48.39;55.64;;
57092;Laerm;42968;52.094;4.328;2023-07-13T10:32:53;51.88;48.57;59.25;;
57092;Laerm;42968;52.094;4.328;2023-07-13T10:35:19;56.44;50.25;63.97;;
57092;Laerm;42968;52.094;4.328;2023-07-13T10:40:51;53.45;48.84;62.84;;
57092;Laerm;42968;52.094;4.328;2023-07-13T10:45:46;55.15;49.57;64.73;;
57092;Laerm;42968;52.094;4.328;2023-07-13T10:48:15;54.97;48.45;65.36;;
57092;Laerm;42968;52.094;4.328;2023-07-13T10:50:41;52.75;47.96;61.05;;
57092;Laerm;42968;52.094;4.328;2023-07-13T10:53:19;54.06;47.48;66.83;;
57092;Laerm;42968;52.094;4.328;2023-07-13T10:58:35;52.80;47.59;67.30;;
57092;Laerm;42968;52.094;4.328;2023-07-13T11:03:30;55.21;48.00;68.07;;
57092;Laerm;42968;52.094;4.328;2023-07-13T11:06:12;52.89;47.81;62.48;;
57092;Laerm;42968;52.094;4.328;2023-07-13T11:11:03;52.50;48.26;62.78;;
57092;Laerm;42968;52.094;4.328;2023-07-13T11:18:41;52.12;48.87;58.37;;
57092;Laerm;42968;52.094;4.328;2023-07-13T11:21:20;51.85;48.67;60.01;;
57092;Laerm;42968;52.094;4.328;2023-07-13T11:23:51;52.81;48.03;65.07;;
57092;Laerm;42968;52.094;4.328;2023-07-13T11:29:07;53.88;47.67;61.94;;
57092;Laerm;42968;52.094;4.328;2023-07-13T11:31:32;52.24;48.58;63.90;;
57092;Laerm;42968;52.094;4.328;2023-07-13T11:33:58;53.80;48.77;65.15;;
57092;Laerm;42968;52.094;4.328;2023-07-13T11:36:27;54.86;49.09;64.31;;
57092;Laerm;42968;52.094;4.328;2023-07-13T11:41:21;54.26;48.99;66.32;;
57092;Laerm;42968;52.094;4.328;2023-07-13T11:43:52;53.42;49.27;62.79;;
57092;Laerm;42968;52.094;4.328;2023-07-13T11:46:20;55.70;50.28;64.43;;
57092;Laerm;42968;52.094;4.328;2023-07-13T11:48:45;55.67;49.89;67.59;;
57092;Laerm;42968;52.094;4.328;2023-07-13T11:51:14;56.46;50.33;69.69;;
57092;Laerm;42968;52.094;4.328;2023-07-13T11:53:44;56.66;50.68;66.76;;
57092;Laerm;42968;52.094;4.328;2023-07-13T11:56:10;56.68;48.91;67.51;;
57092;Laerm;42968;52.094;4.328;2023-07-13T11:58:36;53.46;48.32;63.44;;
57092;Laerm;42968;52.094;4.328;2023-07-13T12:01:02;56.78;47.63;67.81;;
57092;Laerm;42968;52.094;4.328;2023-07-13T12:03:29;62.89;48.77;71.13;;
57092;Laerm;42968;52.094;4.328;2023-07-13T12:05:56;60.08;49.95;72.81;;
57092;Laerm;42968;52.094;4.328;2023-07-13T12:08:22;60.83;49.92;66.00;;
57092;Laerm;42968;52.094;4.328;2023-07-13T12:10:47;60.45;51.66;67.63;;
57092;Laerm;42968;52.094;4.328;2023-07-13T12:13:12;60.15;52.23;67.49;;
57092;Laerm;42968;52.094;4.328;2023-07-13T12:15:43;56.20;49.78;66.65;;
57092;Laerm;42968;52.094;4.328;2023-07-13T12:18:13;55.08;48.40;63.55;;
57092;Laerm;42968;52.094;4.328;2023-07-13T12:20:39;55.42;49.56;64.93;;
57092;Laerm;42968;52.094;4.328;2023-07-13T12:23:05;58.13;49.95;66.64;;
57092;Laerm;42968;52.094;4.328;2023-07-13T12:25:30;57.33;49.56;69.47;;
57092;Laerm;42968;52.094;4.328;2023-07-13T12:27:56;67.62;51.30;75.04;;
57092;Laerm;42968;52.094;4.328;2023-07-13T12:30:29;64.02;50.71;74.56;;
57092;Laerm;42968;52.094;4.328;2023-07-13T12:33:00;61.00;51.14;75.36;;
57092;Laerm;42968;52.094;4.328;2023-07-13T12:35:26;63.51;51.61;71.44;;
57092;Laerm;42968;52.094;4.328;2023-07-13T12:37:54;60.50;51.02;69.17;;
57092;Laerm;42968;52.094;4.328;2023-07-13T12:40:21;56.65;48.78;66.55;;
57092;Laerm;42968;52.094;4.328;2023-07-13T12:42:51;59.32;50.60;71.31;;
57092;Laerm;42968;52.094;4.328;2023-07-13T12:45:18;56.02;50.66;66.05;;
57092;Laerm;42968;52.094;4.328;2023-07-13T12:47:46;55.15;49.79;62.94;;
57092;Laerm;42968;52.094;4.328;2023-07-13T12:50:14;54.14;49.77;61.04;;
57092;Laerm;42968;52.094;4.328;2023-07-13T12:52:39;53.28;49.10;61.26;;
57092;Laerm;42968;52.094;4.328;2023-07-13T12:55:13;56.22;50.81;60.74;;
57092;Laerm;42968;52.094;4.328;2023-07-13T12:57:43;55.78;50.48;66.71;;
57092;Laerm;42968;52.094;4.328;2023-07-13T13:00:28;54.60;49.94;67.68;;
57092;Laerm;42968;52.094;4.328;2023-07-13T13:02:55;56.85;50.95;63.53;;
57092;Laerm;42968;52.094;4.328;2023-07-13T13:05:21;56.22;51.72;62.39;;
57092;Laerm;42968;52.094;4.328;2023-07-13T13:07:48;56.64;52.56;60.28;;
57092;Laerm;42968;52.094;4.328;2023-07-13T13:10:13;54.88;50.91;61.06;;
57092;Laerm;42968;52.094;4.328;2023-07-13T13:12:39;56.75;51.30;63.44;;
57092;Laerm;42968;52.094;4.328;2023-07-13T13:15:05;57.53;52.28;63.40;;
57092;Laerm;42968;52.094;4.328;2023-07-13T13:17:32;58.21;53.24;62.96;;
57092;Laerm;42968;52.094;4.328;2023-07-13T13:19:57;55.72;52.12;63.75;;
57092;Laerm;42968;52.094;4.328;2023-07-13T13:22:23;53.86;50.07;61.23;;
57092;Laerm;42968;52.094;4.328;2023-07-13T13:24:48;55.85;50.35;64.36;;
57092;Laerm;42968;52.094;4.328;2023-07-13T13:27:15;55.20;51.22;60.61;;
57092;Laerm;42968;52.094;4.328;2023-07-13T13:29:40;54.88;50.23;60.11;;
57092;Laerm;42968;52.094;4.328;2023-07-13T13:32:09;54.81;50.55;67.97;;
57092;Laerm;42968;52.094;4.328;2023-07-13T13:34:35;55.81;49.84;67.55;;
57092;Laerm;42968;52.094;4.328;2023-07-13T13:37:00;61.15;51.80;69.32;;
57092;Laerm;42968;52.094;4.328;2023-07-13T13:41:57;55.34;51.67;67.03;;
57092;Laerm;42968;52.094;4.328;2023-07-13T13:44:22;58.50;50.69;68.07;;
57092;Laerm;42968;52.094;4.328;2023-07-13T13:46:50;60.82;53.42;68.03;;
57092;Laerm;42968;52.094;4.328;2023-07-13T13:49:17;61.07;52.76;68.74;;
57092;Laerm;42968;52.094;4.328;2023-07-13T13:51:43;61.22;55.68;69.30;;
57092;Laerm;42968;52.094;4.328;2023-07-13T13:54:10;67.60;56.02;74.48;;
57092;Laerm;42968;52.094;4.328;2023-07-13T13:56:36;62.48;54.58;70.14;;
57092;Laerm;42968;52.094;4.328;2023-07-13T13:59:01;60.54;54.97;69.38;;
57092;Laerm;42968;52.094;4.328;2023-07-13T14:01:26;64.01;54.99;68.73;;
57092;Laerm;42968;52.094;4.328;2023-07-13T14:03:52;58.17;52.58;66.58;;
57092;Laerm;42968;52.094;4.328;2023-07-13T14:06:17;57.64;52.54;63.50;;
57092;Laerm;42968;52.094;4.328;2023-07-13T14:08:43;58.92;51.59;67.31;;
57092;Laerm;42968;52.094;4.328;2023-07-13T14:11:12;56.89;52.31;61.83;;
57092;Laerm;42968;52.094;4.328;2023-07-13T14:13:39;58.06;51.80;67.31;;
57092;Laerm;42968;52.094;4.328;2023-07-13T14:16:12;56.78;51.68;66.30;;
57092;Laerm;42968;52.094;4.328;2023-07-13T14:18:39;60.84;51.84;74.25;;
57092;Laerm;42968;52.094;4.328;2023-07-13T14:21:10;61.68;53.40;71.06;;
57092;Laerm;42968;52.094;4.328;2023-07-13T14:23:36;60.78;51.12;68.86;;
57092;Laerm;42968;52.094;4.328;2023-07-13T14:26:01;74.12;51.20;80.86;;
57092;Laerm;42968;52.094;4.328;2023-07-13T14:28:26;77.17;54.28;80.74;;
57092;Laerm;42968;52.094;4.328;2023-07-13T14:30:53;78.18;55.33;81.25;;